sensor_id;sensor_type;location;lat;lon;timestamp;P1;durP1;ratioP1;P2;durP2;ratioP2
23747;SDS011;12054;53.662;10.126;2022-12-11T00:01:54;8.63;;;5.45;;
23747;SDS011;12054;53.662;10.126;2022-12-11T00:04:20;8.63;;;4.95;;
23747;SDS011;12054;53.662;10.126;2022-12-11T00:06:46;8.38;;;4.95;;
23747;SDS011;12054;53.662;10.126;2022-12-11T00:09:14;8.55;;;5.22;;
23747;SDS011;12054;53.662;10.126;2022-12-11T00:11:40;8.43;;;4.88;;
23747;SDS011;12054;53.662;10.126;2022-12-11T00:14:06;10.25;;;5.68;;
23747;SDS011;12054;53.662;10.126;2022-12-11T00:16:32;9.40;;;4.82;;
23747;SDS011;12054;53.662;10.126;2022-12-11T00:18:57;8.95;;;4.72;;
23747;SDS011;12054;53.662;10.126;2022-12-11T00:21:23;8.48;;;4.93;;
23747;SDS011;12054;53.662;10.126;2022-12-11T00:23:48;7.70;;;4.15;;
23747;SDS011;12054;53.662;10.126;2022-12-11T00:26:14;8.27;;;4.38;;
23747;SDS011;12054;53.662;10.126;2022-12-11T00:28:40;9.23;;;4.53;;
23747;SDS011;12054;53.662;10.126;2022-12-11T00:31:08;9.43;;;4.60;;
23747;SDS011;12054;53.662;10.126;2022-12-11T00:33:37;8.68;;;4.60;;
23747;SDS011;12054;53.662;10.126;2022-12-11T00:36:03;8.50;;;5.03;;
23747;SDS011;12054;53.662;10.126;2022-12-11T00:38:34;7.82;;;4.78;;
23747;SDS011;12054;53.662;10.126;2022-12-11T00:40:59;9.15;;;4.57;;
23747;SDS011;12054;53.662;10.126;2022-12-11T00:43:25;10.02;;;5.22;;
23747;SDS011;12054;53.662;10.126;2022-12-11T00:45:50;8.32;;;4.70;;
23747;SDS011;12054;53.662;10.126;2022-12-11T00:48:16;8.02;;;4.57;;
23747;SDS011;12054;53.662;10.126;2022-12-11T00:50:41;8.07;;;4.95;;
23747;SDS011;12054;53.662;10.126;2022-12-11T00:53:07;9.70;;;5.30;;
23747;SDS011;12054;53.662;10.126;2022-12-11T00:55:36;8.02;;;4.70;;
23747;SDS011;12054;53.662;10.126;2022-12-11T00:58:03;11.07;;;6.15;;
23747;SDS011;12054;53.662;10.126;2022-12-11T01:00:29;9.70;;;4.95;;
23747;SDS011;12054;53.662;10.126;2022-12-11T01:02:55;8.38;;;5.20;;
23747;SDS011;12054;53.662;10.126;2022-12-11T01:05:20;10.23;;;5.47;;
23747;SDS011;12054;53.662;10.126;2022-12-11T01:07:45;8.45;;;5.30;;
23747;SDS011;12054;53.662;10.126;2022-12-11T01:10:11;9.68;;;5.63;;
23747;SDS011;12054;53.662;10.126;2022-12-11T01:15:20;10.48;;;5.90;;
23747;SDS011;12054;53.662;10.126;2022-12-11T01:17:49;9.45;;;5.65;;
23747;SDS011;12054;53.662;10.126;2022-12-11T01:20:15;10.27;;;5.35;;
23747;SDS011;12054;53.662;10.126;2022-12-11T01:22:41;9.27;;;5.45;;
23747;SDS011;12054;53.662;10.126;2022-12-11T01:25:07;10.90;;;5.93;;
23747;SDS011;12054;53.662;10.126;2022-12-11T01:27:34;10.75;;;5.57;;
23747;SDS011;12054;53.662;10.126;2022-12-11T01:29:59;11.30;;;6.15;;
23747;SDS011;12054;53.662;10.126;2022-12-11T01:32:26;8.93;;;5.30;;
23747;SDS011;12054;53.662;10.126;2022-12-11T01:34:52;9.73;;;5.70;;
23747;SDS011;12054;53.662;10.126;2022-12-11T01:37:18;9.10;;;5.28;;
23747;SDS011;12054;53.662;10.126;2022-12-11T01:39:43;9.30;;;5.43;;
23747;SDS011;12054;53.662;10.126;2022-12-11T01:42:09;10.32;;;6.07;;
23747;SDS011;12054;53.662;10.126;2022-12-11T01:47:08;10.48;;;6.03;;
23747;SDS011;12054;53.662;10.126;2022-12-11T01:49:34;10.90;;;5.40;;
23747;SDS011;12054;53.662;10.126;2022-12-11T01:54:35;10.60;;;5.70;;
23747;SDS011;12054;53.662;10.126;2022-12-11T01:57:03;8.98;;;5.30;;
23747;SDS011;12054;53.662;10.126;2022-12-11T01:59:31;8.13;;;5.05;;
23747;SDS011;12054;53.662;10.126;2022-12-11T02:02:07;8.38;;;4.93;;
23747;SDS011;12054;53.662;10.126;2022-12-11T02:04:40;10.55;;;5.43;;
23747;SDS011;12054;53.662;10.126;2022-12-11T02:07:08;9.63;;;5.30;;
23747;SDS011;12054;53.662;10.126;2022-12-11T02:09:34;9.40;;;5.32;;
23747;SDS011;12054;53.662;10.126;2022-12-11T02:14:56;9.50;;;5.47;;
23747;SDS011;12054;53.662;10.126;2022-12-11T02:23:21;10.32;;;5.55;;
23747;SDS011;12054;53.662;10.126;2022-12-11T02:26:21;9.75;;;6.20;;
23747;SDS011;12054;53.662;10.126;2022-12-11T02:29:17;10.95;;;6.18;;
23747;SDS011;12054;53.662;10.126;2022-12-11T02:31:49;10.50;;;5.72;;
23747;SDS011;12054;53.662;10.126;2022-12-11T02:34:31;11.23;;;5.93;;
23747;SDS011;12054;53.662;10.126;2022-12-11T02:37:05;9.57;;;5.68;;
23747;SDS011;12054;53.662;10.126;2022-12-11T02:39:34;10.18;;;5.30;;
23747;SDS011;12054;53.662;10.126;2022-12-11T02:42:03;10.20;;;6.03;;
23747;SDS011;12054;53.662;10.126;2022-12-11T02:44:30;11.77;;;6.60;;
23747;SDS011;12054;53.662;10.126;2022-12-11T02:46:58;14.30;;;6.57;;
23747;SDS011;12054;53.662;10.126;2022-12-11T02:49:24;12.20;;;6.90;;
23747;SDS011;12054;53.662;10.126;2022-12-11T02:51:52;11.75;;;6.95;;
23747;SDS011;12054;53.662;10.126;2022-12-11T02:54:22;13.13;;;6.63;;
23747;SDS011;12054;53.662;10.126;2022-12-11T02:56:54;13.55;;;6.75;;
23747;SDS011;12054;53.662;10.126;2022-12-11T02:59:42;11.45;;;6.70;;
23747;SDS011;12054;53.662;10.126;2022-12-11T03:02:10;15.05;;;7.35;;
23747;SDS011;12054;53.662;10.126;2022-12-11T03:04:37;14.98;;;7.55;;
23747;SDS011;12054;53.662;10.126;2022-12-11T03:07:12;14.00;;;6.93;;
23747;SDS011;12054;53.662;10.126;2022-12-11T03:09:45;13.30;;;7.35;;
23747;SDS011;12054;53.662;10.126;2022-12-11T03:12:14;14.35;;;6.97;;
23747;SDS011;12054;53.662;10.126;2022-12-11T03:14:44;12.00;;;6.38;;
23747;SDS011;12054;53.662;10.126;2022-12-11T03:19:56;12.70;;;7.25;;
23747;SDS011;12054;53.662;10.126;2022-12-11T03:22:36;13.55;;;7.30;;
23747;SDS011;12054;53.662;10.126;2022-12-11T03:25:09;15.48;;;7.60;;
23747;SDS011;12054;53.662;10.126;2022-12-11T03:27:44;12.60;;;7.03;;
23747;SDS011;12054;53.662;10.126;2022-12-11T03:30:15;12.35;;;6.63;;
23747;SDS011;12054;53.662;10.126;2022-12-11T03:32:46;13.80;;;7.03;;
23747;SDS011;12054;53.662;10.126;2022-12-11T03:35:41;15.95;;;7.93;;
23747;SDS011;12054;53.662;10.126;2022-12-11T03:38:14;14.13;;;7.35;;
23747;SDS011;12054;53.662;10.126;2022-12-11T03:40:44;13.77;;;7.07;;
23747;SDS011;12054;53.662;10.126;2022-12-11T03:43:13;14.85;;;7.50;;
23747;SDS011;12054;53.662;10.126;2022-12-11T03:45:40;14.85;;;7.68;;
23747;SDS011;12054;53.662;10.126;2022-12-11T03:48:07;15.85;;;7.72;;
23747;SDS011;12054;53.662;10.126;2022-12-11T03:50:34;14.82;;;7.72;;
23747;SDS011;12054;53.662;10.126;2022-12-11T03:53:01;16.13;;;7.78;;
23747;SDS011;12054;53.662;10.126;2022-12-11T03:55:28;16.98;;;8.35;;
23747;SDS011;12054;53.662;10.126;2022-12-11T03:57:54;17.38;;;8.00;;
23747;SDS011;12054;53.662;10.126;2022-12-11T04:00:20;15.35;;;7.88;;
23747;SDS011;12054;53.662;10.126;2022-12-11T04:02:47;14.35;;;7.47;;
23747;SDS011;12054;53.662;10.126;2022-12-11T04:05:32;14.85;;;7.65;;
23747;SDS011;12054;53.662;10.126;2022-12-11T04:07:58;14.93;;;8.18;;
23747;SDS011;12054;53.662;10.126;2022-12-11T04:10:24;13.73;;;8.00;;
23747;SDS011;12054;53.662;10.126;2022-12-11T04:12:49;14.45;;;7.97;;
23747;SDS011;12054;53.662;10.126;2022-12-11T04:15:15;13.80;;;7.07;;
23747;SDS011;12054;53.662;10.126;2022-12-11T04:17:40;15.45;;;8.02;;
23747;SDS011;12054;53.662;10.126;2022-12-11T04:20:24;16.80;;;8.15;;
23747;SDS011;12054;53.662;10.126;2022-12-11T04:23:10;15.48;;;7.90;;
23747;SDS011;12054;53.662;10.126;2022-12-11T04:26:03;17.15;;;7.72;;
23747;SDS011;12054;53.662;10.126;2022-12-11T04:28:31;14.95;;;8.15;;
23747;SDS011;12054;53.662;10.126;2022-12-11T04:30:56;15.05;;;7.88;;
23747;SDS011;12054;53.662;10.126;2022-12-11T04:33:22;15.52;;;8.27;;
23747;SDS011;12054;53.662;10.126;2022-12-11T04:35:47;13.68;;;7.25;;
23747;SDS011;12054;53.662;10.126;2022-12-11T04:38:13;14.57;;;7.80;;
23747;SDS011;12054;53.662;10.126;2022-12-11T04:40:38;17.25;;;8.60;;
23747;SDS011;12054;53.662;10.126;2022-12-11T04:43:04;13.38;;;7.28;;
23747;SDS011;12054;53.662;10.126;2022-12-11T04:45:29;16.10;;;7.75;;
23747;SDS011;12054;53.662;10.126;2022-12-11T04:47:55;14.02;;;7.70;;
23747;SDS011;12054;53.662;10.126;2022-12-11T04:50:20;15.02;;;8.43;;
23747;SDS011;12054;53.662;10.126;2022-12-11T04:52:46;13.35;;;7.82;;
23747;SDS011;12054;53.662;10.126;2022-12-11T04:55:11;15.27;;;7.85;;
23747;SDS011;12054;53.662;10.126;2022-12-11T04:57:37;16.40;;;7.88;;
23747;SDS011;12054;53.662;10.126;2022-12-11T05:00:04;13.52;;;7.93;;
23747;SDS011;12054;53.662;10.126;2022-12-11T05:02:33;14.27;;;7.80;;
23747;SDS011;12054;53.662;10.126;2022-12-11T05:05:00;15.48;;;8.05;;
23747;SDS011;12054;53.662;10.126;2022-12-11T05:07:27;17.25;;;8.48;;
23747;SDS011;12054;53.662;10.126;2022-12-11T05:09:52;16.40;;;8.27;;
23747;SDS011;12054;53.662;10.126;2022-12-11T05:12:18;19.08;;;8.38;;
23747;SDS011;12054;53.662;10.126;2022-12-11T05:14:43;17.88;;;8.32;;
23747;SDS011;12054;53.662;10.126;2022-12-11T05:17:09;13.75;;;7.95;;
23747;SDS011;12054;53.662;10.126;2022-12-11T05:19:35;15.75;;;8.23;;
23747;SDS011;12054;53.662;10.126;2022-12-11T05:22:00;15.07;;;7.95;;
23747;SDS011;12054;53.662;10.126;2022-12-11T05:24:26;15.90;;;8.52;;
23747;SDS011;12054;53.662;10.126;2022-12-11T05:26:51;13.50;;;7.78;;
23747;SDS011;12054;53.662;10.126;2022-12-11T05:29:17;13.27;;;7.80;;
23747;SDS011;12054;53.662;10.126;2022-12-11T05:31:42;15.38;;;8.32;;
23747;SDS011;12054;53.662;10.126;2022-12-11T05:34:08;15.30;;;8.40;;
23747;SDS011;12054;53.662;10.126;2022-12-11T05:36:33;16.52;;;8.45;;
23747;SDS011;12054;53.662;10.126;2022-12-11T05:38:59;15.88;;;8.23;;
23747;SDS011;12054;53.662;10.126;2022-12-11T05:41:28;15.80;;;8.13;;
23747;SDS011;12054;53.662;10.126;2022-12-11T05:43:55;14.25;;;7.50;;
23747;SDS011;12054;53.662;10.126;2022-12-11T05:46:22;17.75;;;8.18;;
23747;SDS011;12054;53.662;10.126;2022-12-11T05:48:50;14.45;;;7.82;;
23747;SDS011;12054;53.662;10.126;2022-12-11T05:51:18;14.52;;;7.57;;
23747;SDS011;12054;53.662;10.126;2022-12-11T05:53:45;15.95;;;8.25;;
23747;SDS011;12054;53.662;10.126;2022-12-11T05:56:13;17.10;;;8.10;;
23747;SDS011;12054;53.662;10.126;2022-12-11T05:58:41;17.90;;;7.88;;
23747;SDS011;12054;53.662;10.126;2022-12-11T06:01:12;14.82;;;8.38;;
23747;SDS011;12054;53.662;10.126;2022-12-11T06:03:43;11.88;;;6.82;;
23747;SDS011;12054;53.662;10.126;2022-12-11T06:06:09;17.02;;;8.13;;
23747;SDS011;12054;53.662;10.126;2022-12-11T06:08:34;16.00;;;8.23;;
23747;SDS011;12054;53.662;10.126;2022-12-11T06:11:00;15.95;;;7.85;;
23747;SDS011;12054;53.662;10.126;2022-12-11T06:13:26;16.02;;;8.60;;
23747;SDS011;12054;53.662;10.126;2022-12-11T06:15:52;16.02;;;7.82;;
23747;SDS011;12054;53.662;10.126;2022-12-11T06:18:17;13.45;;;7.47;;
23747;SDS011;12054;53.662;10.126;2022-12-11T06:20:43;16.58;;;8.52;;
23747;SDS011;12054;53.662;10.126;2022-12-11T06:23:08;16.90;;;8.18;;
23747;SDS011;12054;53.662;10.126;2022-12-11T06:25:34;17.88;;;8.82;;
23747;SDS011;12054;53.662;10.126;2022-12-11T06:28:02;15.90;;;7.95;;
23747;SDS011;12054;53.662;10.126;2022-12-11T06:30:28;17.08;;;8.32;;
23747;SDS011;12054;53.662;10.126;2022-12-11T06:32:54;15.35;;;7.90;;
23747;SDS011;12054;53.662;10.126;2022-12-11T06:35:19;16.50;;;7.65;;
23747;SDS011;12054;53.662;10.126;2022-12-11T06:37:45;14.10;;;7.68;;
23747;SDS011;12054;53.662;10.126;2022-12-11T06:40:11;14.55;;;7.45;;
23747;SDS011;12054;53.662;10.126;2022-12-11T06:42:37;15.23;;;8.15;;
23747;SDS011;12054;53.662;10.126;2022-12-11T06:45:03;16.00;;;7.78;;
23747;SDS011;12054;53.662;10.126;2022-12-11T06:47:29;13.52;;;8.40;;
23747;SDS011;12054;53.662;10.126;2022-12-11T06:49:55;17.67;;;7.78;;
23747;SDS011;12054;53.662;10.126;2022-12-11T06:52:22;16.63;;;8.15;;
23747;SDS011;12054;53.662;10.126;2022-12-11T06:54:48;14.82;;;7.65;;
23747;SDS011;12054;53.662;10.126;2022-12-11T06:57:14;15.38;;;7.43;;
23747;SDS011;12054;53.662;10.126;2022-12-11T06:59:40;16.17;;;7.75;;
23747;SDS011;12054;53.662;10.126;2022-12-11T07:02:06;13.40;;;7.13;;
23747;SDS011;12054;53.662;10.126;2022-12-11T07:04:31;15.50;;;8.10;;
23747;SDS011;12054;53.662;10.126;2022-12-11T07:06:58;14.80;;;8.27;;
23747;SDS011;12054;53.662;10.126;2022-12-11T07:09:24;16.25;;;7.88;;
23747;SDS011;12054;53.662;10.126;2022-12-11T07:11:50;13.80;;;7.70;;
23747;SDS011;12054;53.662;10.126;2022-12-11T07:14:16;17.13;;;8.05;;
23747;SDS011;12054;53.662;10.126;2022-12-11T07:16:42;18.45;;;9.63;;
23747;SDS011;12054;53.662;10.126;2022-12-11T07:19:07;17.83;;;9.80;;
23747;SDS011;12054;53.662;10.126;2022-12-11T07:21:33;17.42;;;9.40;;
23747;SDS011;12054;53.662;10.126;2022-12-11T07:23:59;18.38;;;10.13;;
23747;SDS011;12054;53.662;10.126;2022-12-11T07:26:25;19.90;;;9.23;;
23747;SDS011;12054;53.662;10.126;2022-12-11T07:28:50;17.20;;;9.65;;
23747;SDS011;12054;53.662;10.126;2022-12-11T07:31:17;14.35;;;8.38;;
23747;SDS011;12054;53.662;10.126;2022-12-11T07:33:45;15.50;;;8.25;;
23747;SDS011;12054;53.662;10.126;2022-12-11T07:36:12;18.80;;;8.85;;
23747;SDS011;12054;53.662;10.126;2022-12-11T07:38:39;17.17;;;8.48;;
23747;SDS011;12054;53.662;10.126;2022-12-11T07:41:06;14.35;;;7.78;;
23747;SDS011;12054;53.662;10.126;2022-12-11T07:43:34;19.67;;;9.50;;
23747;SDS011;12054;53.662;10.126;2022-12-11T07:46:01;16.08;;;8.60;;
23747;SDS011;12054;53.662;10.126;2022-12-11T07:48:28;17.70;;;7.78;;
23747;SDS011;12054;53.662;10.126;2022-12-11T07:50:53;18.77;;;9.23;;
23747;SDS011;12054;53.662;10.126;2022-12-11T07:53:19;17.58;;;8.23;;
23747;SDS011;12054;53.662;10.126;2022-12-11T07:55:44;16.23;;;8.88;;
23747;SDS011;12054;53.662;10.126;2022-12-11T07:58:10;16.35;;;8.70;;
23747;SDS011;12054;53.662;10.126;2022-12-11T08:00:35;16.00;;;8.55;;
23747;SDS011;12054;53.662;10.126;2022-12-11T08:03:01;18.38;;;8.40;;
23747;SDS011;12054;53.662;10.126;2022-12-11T08:05:26;16.23;;;8.55;;
23747;SDS011;12054;53.662;10.126;2022-12-11T08:07:52;17.95;;;8.63;;
23747;SDS011;12054;53.662;10.126;2022-12-11T08:10:17;19.52;;;9.27;;
23747;SDS011;12054;53.662;10.126;2022-12-11T08:12:43;17.15;;;8.73;;
23747;SDS011;12054;53.662;10.126;2022-12-11T08:15:09;18.52;;;9.15;;
23747;SDS011;12054;53.662;10.126;2022-12-11T08:17:34;18.40;;;9.15;;
23747;SDS011;12054;53.662;10.126;2022-12-11T08:20:00;17.45;;;9.32;;
23747;SDS011;12054;53.662;10.126;2022-12-11T08:22:25;18.90;;;9.50;;
23747;SDS011;12054;53.662;10.126;2022-12-11T08:24:51;20.33;;;10.50;;
23747;SDS011;12054;53.662;10.126;2022-12-11T08:27:16;19.30;;;10.55;;
23747;SDS011;12054;53.662;10.126;2022-12-11T08:29:42;17.25;;;9.43;;
23747;SDS011;12054;53.662;10.126;2022-12-11T08:32:07;18.77;;;9.15;;
23747;SDS011;12054;53.662;10.126;2022-12-11T08:34:33;20.50;;;9.90;;
23747;SDS011;12054;53.662;10.126;2022-12-11T08:36:58;17.58;;;9.50;;
23747;SDS011;12054;53.662;10.126;2022-12-11T08:39:24;17.23;;;9.00;;
23747;SDS011;12054;53.662;10.126;2022-12-11T08:41:50;18.75;;;9.60;;
23747;SDS011;12054;53.662;10.126;2022-12-11T08:44:16;21.50;;;10.07;;
23747;SDS011;12054;53.662;10.126;2022-12-11T08:46:41;17.98;;;9.82;;
23747;SDS011;12054;53.662;10.126;2022-12-11T08:49:08;24.35;;;10.57;;
23747;SDS011;12054;53.662;10.126;2022-12-11T08:51:34;17.88;;;9.88;;
23747;SDS011;12054;53.662;10.126;2022-12-11T08:53:59;21.08;;;10.45;;
23747;SDS011;12054;53.662;10.126;2022-12-11T08:56:26;18.90;;;10.55;;
23747;SDS011;12054;53.662;10.126;2022-12-11T08:58:52;18.95;;;10.15;;
23747;SDS011;12054;53.662;10.126;2022-12-11T09:01:19;19.63;;;10.40;;
23747;SDS011;12054;53.662;10.126;2022-12-11T09:03:47;18.75;;;10.57;;
23747;SDS011;12054;53.662;10.126;2022-12-11T09:06:14;16.38;;;9.85;;
23747;SDS011;12054;53.662;10.126;2022-12-11T09:08:41;18.70;;;10.32;;
23747;SDS011;12054;53.662;10.126;2022-12-11T09:11:09;19.85;;;11.02;;
23747;SDS011;12054;53.662;10.126;2022-12-11T09:13:37;17.90;;;10.23;;
23747;SDS011;12054;53.662;10.126;2022-12-11T09:16:04;19.48;;;10.10;;
23747;SDS011;12054;53.662;10.126;2022-12-11T09:18:30;19.38;;;10.85;;
23747;SDS011;12054;53.662;10.126;2022-12-11T09:20:57;19.77;;;10.75;;
23747;SDS011;12054;53.662;10.126;2022-12-11T09:23:27;18.77;;;10.65;;
23747;SDS011;12054;53.662;10.126;2022-12-11T09:25:52;19.13;;;10.63;;
23747;SDS011;12054;53.662;10.126;2022-12-11T09:28:18;19.13;;;10.82;;
23747;SDS011;12054;53.662;10.126;2022-12-11T09:30:44;16.55;;;9.68;;
23747;SDS011;12054;53.662;10.126;2022-12-11T09:33:09;20.52;;;11.13;;
23747;SDS011;12054;53.662;10.126;2022-12-11T09:35:35;20.35;;;12.20;;
23747;SDS011;12054;53.662;10.126;2022-12-11T09:38:01;17.55;;;10.30;;
23747;SDS011;12054;53.662;10.126;2022-12-11T09:40:27;17.33;;;10.15;;
23747;SDS011;12054;53.662;10.126;2022-12-11T09:42:53;21.20;;;11.02;;
23747;SDS011;12054;53.662;10.126;2022-12-11T09:45:24;18.48;;;10.63;;
23747;SDS011;12054;53.662;10.126;2022-12-11T09:47:51;18.10;;;12.00;;
23747;SDS011;12054;53.662;10.126;2022-12-11T09:50:23;22.10;;;12.07;;
23747;SDS011;12054;53.662;10.126;2022-12-11T09:58:29;17.48;;;10.25;;
23747;SDS011;12054;53.662;10.126;2022-12-11T10:17:22;16.08;;;9.85;;
23747;SDS011;12054;53.662;10.126;2022-12-11T10:19:53;15.27;;;9.15;;
23747;SDS011;12054;53.662;10.126;2022-12-11T10:22:22;14.90;;;9.32;;
23747;SDS011;12054;53.662;10.126;2022-12-11T10:24:59;15.57;;;9.52;;
23747;SDS011;12054;53.662;10.126;2022-12-11T10:27:30;13.68;;;8.25;;
23747;SDS011;12054;53.662;10.126;2022-12-11T10:35:16;16.85;;;8.98;;
23747;SDS011;12054;53.662;10.126;2022-12-11T10:37:44;16.50;;;9.48;;
23747;SDS011;12054;53.662;10.126;2022-12-11T10:40:10;15.70;;;9.40;;
23747;SDS011;12054;53.662;10.126;2022-12-11T10:42:36;16.75;;;9.57;;
23747;SDS011;12054;53.662;10.126;2022-12-11T10:45:03;16.08;;;9.50;;
23747;SDS011;12054;53.662;10.126;2022-12-11T10:47:29;17.15;;;9.90;;
23747;SDS011;12054;53.662;10.126;2022-12-11T10:49:59;14.48;;;8.85;;
23747;SDS011;12054;53.662;10.126;2022-12-11T10:52:27;16.52;;;10.45;;
23747;SDS011;12054;53.662;10.126;2022-12-11T10:55:05;16.00;;;9.35;;
23747;SDS011;12054;53.662;10.126;2022-12-11T10:57:33;17.65;;;10.23;;
23747;SDS011;12054;53.662;10.126;2022-12-11T11:00:00;17.30;;;10.02;;
23747;SDS011;12054;53.662;10.126;2022-12-11T11:02:33;14.75;;;8.95;;
23747;SDS011;12054;53.662;10.126;2022-12-11T11:05:14;17.77;;;10.20;;
23747;SDS011;12054;53.662;10.126;2022-12-11T11:07:42;16.25;;;9.02;;
23747;SDS011;12054;53.662;10.126;2022-12-11T11:12:43;16.75;;;10.32;;
23747;SDS011;12054;53.662;10.126;2022-12-11T11:15:14;16.35;;;9.60;;
23747;SDS011;12054;53.662;10.126;2022-12-11T11:17:47;17.13;;;9.45;;
23747;SDS011;12054;53.662;10.126;2022-12-11T11:20:15;16.05;;;9.73;;
23747;SDS011;12054;53.662;10.126;2022-12-11T11:22:43;15.70;;;9.20;;
23747;SDS011;12054;53.662;10.126;2022-12-11T11:25:15;15.90;;;9.15;;
23747;SDS011;12054;53.662;10.126;2022-12-11T11:28:14;15.65;;;8.65;;
23747;SDS011;12054;53.662;10.126;2022-12-11T11:30:41;15.57;;;8.98;;
23747;SDS011;12054;53.662;10.126;2022-12-11T11:33:25;14.38;;;8.35;;
23747;SDS011;12054;53.662;10.126;2022-12-11T11:38:18;14.90;;;8.52;;
23747;SDS011;12054;53.662;10.126;2022-12-11T11:43:42;11.35;;;7.00;;
23747;SDS011;12054;53.662;10.126;2022-12-11T11:46:22;14.48;;;7.80;;
23747;SDS011;12054;53.662;10.126;2022-12-11T11:52:33;15.00;;;8.10;;
23747;SDS011;12054;53.662;10.126;2022-12-11T11:54:53;14.27;;;8.23;;
23747;SDS011;12054;53.662;10.126;2022-12-11T11:57:39;13.82;;;7.93;;
23747;SDS011;12054;53.662;10.126;2022-12-11T12:00:22;14.82;;;8.45;;
23747;SDS011;12054;53.662;10.126;2022-12-11T12:02:51;13.90;;;8.30;;
23747;SDS011;12054;53.662;10.126;2022-12-11T12:05:26;13.27;;;8.40;;
23747;SDS011;12054;53.662;10.126;2022-12-11T12:10:56;13.90;;;7.68;;
23747;SDS011;12054;53.662;10.126;2022-12-11T12:13:47;16.13;;;7.97;;
23747;SDS011;12054;53.662;10.126;2022-12-11T12:16:44;16.30;;;8.55;;
23747;SDS011;12054;53.662;10.126;2022-12-11T12:22:37;16.33;;;8.13;;
23747;SDS011;12054;53.662;10.126;2022-12-11T12:30:27;13.40;;;8.20;;
23747;SDS011;12054;53.662;10.126;2022-12-11T12:33:04;14.85;;;7.95;;
23747;SDS011;12054;53.662;10.126;2022-12-11T12:35:43;17.02;;;9.02;;
23747;SDS011;12054;53.662;10.126;2022-12-11T12:38:24;15.63;;;8.10;;
23747;SDS011;12054;53.662;10.126;2022-12-11T12:41:08;14.68;;;8.10;;
23747;SDS011;12054;53.662;10.126;2022-12-11T12:46:48;15.45;;;7.32;;
23747;SDS011;12054;53.662;10.126;2022-12-11T12:49:27;17.00;;;8.75;;
23747;SDS011;12054;53.662;10.126;2022-12-11T12:52:18;17.40;;;8.88;;
23747;SDS011;12054;53.662;10.126;2022-12-11T12:54:47;14.02;;;7.97;;
23747;SDS011;12054;53.662;10.126;2022-12-11T12:57:36;15.23;;;7.65;;
23747;SDS011;12054;53.662;10.126;2022-12-11T13:00:04;16.33;;;8.55;;
23747;SDS011;12054;53.662;10.126;2022-12-11T13:02:31;18.58;;;8.95;;
23747;SDS011;12054;53.662;10.126;2022-12-11T13:04:58;17.10;;;9.40;;
23747;SDS011;12054;53.662;10.126;2022-12-11T13:07:29;14.73;;;8.23;;
23747;SDS011;12054;53.662;10.126;2022-12-11T13:09:57;15.43;;;8.55;;
23747;SDS011;12054;53.662;10.126;2022-12-11T13:12:44;16.00;;;8.57;;
23747;SDS011;12054;53.662;10.126;2022-12-11T13:17:51;16.92;;;9.35;;
23747;SDS011;12054;53.662;10.126;2022-12-11T13:20:19;16.88;;;8.45;;
23747;SDS011;12054;53.662;10.126;2022-12-11T13:23:14;16.95;;;8.90;;
23747;SDS011;12054;53.662;10.126;2022-12-11T13:25:45;12.48;;;7.45;;
23747;SDS011;12054;53.662;10.126;2022-12-11T13:28:23;16.48;;;9.00;;
23747;SDS011;12054;53.662;10.126;2022-12-11T13:33:40;16.25;;;9.43;;
23747;SDS011;12054;53.662;10.126;2022-12-11T13:38:34;18.15;;;9.57;;
23747;SDS011;12054;53.662;10.126;2022-12-11T13:41:01;19.00;;;9.07;;
23747;SDS011;12054;53.662;10.126;2022-12-11T13:43:33;20.63;;;10.38;;
23747;SDS011;12054;53.662;10.126;2022-12-11T13:45:59;15.55;;;8.43;;
23747;SDS011;12054;53.662;10.126;2022-12-11T13:48:28;18.70;;;9.65;;
23747;SDS011;12054;53.662;10.126;2022-12-11T13:51:04;16.52;;;8.68;;
23747;SDS011;12054;53.662;10.126;2022-12-11T13:53:33;16.83;;;8.85;;
23747;SDS011;12054;53.662;10.126;2022-12-11T13:56:13;16.02;;;8.55;;
23747;SDS011;12054;53.662;10.126;2022-12-11T13:58:41;19.83;;;10.52;;
23747;SDS011;12054;53.662;10.126;2022-12-11T14:01:09;18.55;;;10.15;;
23747;SDS011;12054;53.662;10.126;2022-12-11T14:03:45;27.27;;;12.63;;
23747;SDS011;12054;53.662;10.126;2022-12-11T14:06:17;19.42;;;9.88;;
23747;SDS011;12054;53.662;10.126;2022-12-11T14:08:43;20.90;;;9.73;;
23747;SDS011;12054;53.662;10.126;2022-12-11T14:11:22;20.50;;;9.68;;
23747;SDS011;12054;53.662;10.126;2022-12-11T14:13:57;17.85;;;9.40;;
23747;SDS011;12054;53.662;10.126;2022-12-11T14:16:25;17.40;;;9.23;;
23747;SDS011;12054;53.662;10.126;2022-12-11T14:18:52;20.55;;;9.30;;
23747;SDS011;12054;53.662;10.126;2022-12-11T14:21:23;16.45;;;9.45;;
23747;SDS011;12054;53.662;10.126;2022-12-11T14:23:50;19.23;;;10.10;;
23747;SDS011;12054;53.662;10.126;2022-12-11T14:26:21;20.27;;;10.02;;
23747;SDS011;12054;53.662;10.126;2022-12-11T14:28:48;17.08;;;9.23;;
23747;SDS011;12054;53.662;10.126;2022-12-11T14:31:15;18.80;;;9.63;;
23747;SDS011;12054;53.662;10.126;2022-12-11T14:33:52;18.55;;;9.52;;
23747;SDS011;12054;53.662;10.126;2022-12-11T14:36:21;18.33;;;9.90;;
23747;SDS011;12054;53.662;10.126;2022-12-11T14:38:54;19.50;;;9.90;;
23747;SDS011;12054;53.662;10.126;2022-12-11T14:41:28;18.10;;;8.70;;
23747;SDS011;12054;53.662;10.126;2022-12-11T14:44:02;19.65;;;9.60;;
23747;SDS011;12054;53.662;10.126;2022-12-11T14:46:39;19.00;;;9.73;;
23747;SDS011;12054;53.662;10.126;2022-12-11T14:49:16;20.30;;;9.30;;
23747;SDS011;12054;53.662;10.126;2022-12-11T14:52:01;18.50;;;10.10;;
23747;SDS011;12054;53.662;10.126;2022-12-11T14:54:30;19.33;;;9.68;;
23747;SDS011;12054;53.662;10.126;2022-12-11T14:57:03;19.40;;;9.15;;
23747;SDS011;12054;53.662;10.126;2022-12-11T14:59:30;19.30;;;9.30;;
23747;SDS011;12054;53.662;10.126;2022-12-11T15:02:17;21.52;;;10.10;;
23747;SDS011;12054;53.662;10.126;2022-12-11T15:07:52;21.10;;;9.98;;
23747;SDS011;12054;53.662;10.126;2022-12-11T15:10:23;17.17;;;9.55;;
23747;SDS011;12054;53.662;10.126;2022-12-11T15:12:52;16.88;;;8.88;;
23747;SDS011;12054;53.662;10.126;2022-12-11T15:15:18;18.20;;;9.73;;
23747;SDS011;12054;53.662;10.126;2022-12-11T15:17:45;18.92;;;10.02;;
23747;SDS011;12054;53.662;10.126;2022-12-11T15:20:20;22.55;;;10.18;;
23747;SDS011;12054;53.662;10.126;2022-12-11T15:22:55;19.55;;;9.70;;
23747;SDS011;12054;53.662;10.126;2022-12-11T15:25:24;20.20;;;9.55;;
23747;SDS011;12054;53.662;10.126;2022-12-11T15:27:56;23.10;;;10.35;;
23747;SDS011;12054;53.662;10.126;2022-12-11T15:30:24;19.33;;;10.05;;
23747;SDS011;12054;53.662;10.126;2022-12-11T15:33:01;22.42;;;10.50;;
23747;SDS011;12054;53.662;10.126;2022-12-11T15:35:27;20.58;;;10.32;;
23747;SDS011;12054;53.662;10.126;2022-12-11T15:37:53;21.90;;;11.57;;
23747;SDS011;12054;53.662;10.126;2022-12-11T15:40:20;19.08;;;10.82;;
23747;SDS011;12054;53.662;10.126;2022-12-11T15:42:46;21.13;;;11.55;;
23747;SDS011;12054;53.662;10.126;2022-12-11T15:45:16;21.75;;;11.05;;
23747;SDS011;12054;53.662;10.126;2022-12-11T15:47:44;23.60;;;11.88;;
23747;SDS011;12054;53.662;10.126;2022-12-11T15:50:14;24.30;;;12.82;;
23747;SDS011;12054;53.662;10.126;2022-12-11T15:52:43;23.27;;;11.35;;
23747;SDS011;12054;53.662;10.126;2022-12-11T15:55:10;23.30;;;12.05;;
23747;SDS011;12054;53.662;10.126;2022-12-11T15:57:36;22.23;;;11.57;;